Time;durP1;ratioP1;P1;durP2;ratioP2;P2;SDS_P1;SDS_P2;PMS_P1;PMS_P2;Temp;Humidity;BMP_temperature;BMP_pressure;BME280_temperature;BME280_humidity;BME280_pressure;Samples;Min_cycle;Max_cycle;Signal;HPM_P1;HPM_P2
2023/08/13 00:01:27;;;;;;;2.33;1.77;;;23.70;65.80;;;;;;6171312;23;20386;-74
2023/08/13 00:03:56;;;;;;;2.33;1.80;;;23.70;65.80;;;;;;6170511;22;20945;-73
2023/08/13 00:06:24;;;;;;;1.63;1.43;;;23.70;65.70;;;;;;6171047;23;20478;-72
2023/08/13 00:08:54;;;;;;;3.30;1.73;;;23.60;65.70;;;;;;6171904;23;20408;-73
2023/08/13 00:11:22;;;;;;;3.03;1.97;;;23.60;65.70;;;;;;6171283;23;20397;-74
2023/08/13 00:13:51;;;;;;;2.30;1.40;;;23.60;65.60;;;;;;6169047;23;20439;-72
2023/08/13 00:16:19;;;;;;;1.57;1.27;;;23.60;65.70;;;;;;6171662;23;20432;-73
2023/08/13 00:18:48;;;;;;;2.60;1.67;;;23.60;65.60;;;;;;6170379;23;20389;-74
2023/08/13 00:21:16;;;;;;;3.00;1.30;;;23.60;65.60;;;;;;6170683;23;20397;-73
2023/08/13 00:23:45;;;;;;;2.57;1.40;;;23.60;65.60;;;;;;6169668;23;20767;-73
2023/08/13 00:26:14;;;;;;;3.03;1.70;;;23.60;65.70;;;;;;6171090;23;20452;-72
2023/08/13 00:28:43;;;;;;;2.63;1.60;;;23.60;66.80;;;;;;6169971;23;20405;-72
2023/08/13 00:31:11;;;;;;;2.70;1.80;;;23.60;65.60;;;;;;6171584;23;20403;-72
2023/08/13 00:33:40;;;;;;;1.97;1.47;;;23.60;65.60;;;;;;6169633;23;20395;-73
2023/08/13 00:36:08;;;;;;;2.33;1.33;;;23.60;65.70;;;;;;6170196;23;20413;-72
2023/08/13 00:38:37;;;;;;;2.27;1.40;;;23.60;65.70;;;;;;6169790;23;20436;-72
2023/08/13 00:41:05;;;;;;;2.37;1.60;;;23.60;65.70;;;;;;6170665;23;20407;-72
2023/08/13 00:43:37;;;;;;;2.13;1.70;;;23.60;65.70;;;;;;6169862;23;20424;-74
2023/08/13 00:46:05;;;;;;;2.90;1.97;;;23.60;65.60;;;;;;6172236;23;20934;-72
2023/08/13 00:48:35;;;;;;;2.00;1.40;;;23.60;65.60;;;;;;6170337;23;20938;-72
2023/08/13 00:51:04;;;;;;;5.03;1.70;;;23.60;65.50;;;;;;6170261;23;20420;-73
2023/08/13 00:53:36;;;;;;;2.30;1.70;;;23.60;65.60;;;;;;6172467;23;20377;-72
2023/08/13 00:56:04;;;;;;;2.50;1.80;;;23.60;65.60;;;;;;6171062;23;20829;-73
2023/08/13 00:58:33;;;;;;;2.53;1.90;;;23.60;65.50;;;;;;6171531;23;20369;-73
2023/08/13 01:01:02;;;;;;;2.83;1.60;;;23.60;65.40;;;;;;6171058;23;20479;-72
2023/08/13 01:03:31;;;;;;;2.27;2.07;;;23.60;65.40;;;;;;6170170;23;20389;-72
2023/08/13 01:06:08;;;;;;;2.13;1.90;;;23.60;65.40;;;;;;6169373;23;20899;-72
2023/08/13 01:08:47;;;;;;;1.57;1.47;;;23.60;65.60;;;;;;6172059;23;20373;-73
2023/08/13 01:11:22;;;;;;;2.03;1.50;;;23.50;65.40;;;;;;6170801;23;20396;-72
2023/08/13 01:14:00;;;;;;;2.90;1.60;;;23.60;65.40;;;;;;6169484;23;20756;-73
2023/08/13 01:16:32;;;;;;;2.37;1.93;;;23.50;65.30;;;;;;6170944;23;20404;-72
2023/08/13 01:19:01;;;;;;;1.93;1.30;;;23.50;65.30;;;;;;6170605;23;20392;-74
2023/08/13 01:21:30;;;;;;;3.60;1.60;;;23.50;66.60;;;;;;6171895;23;20744;-73
2023/08/13 01:23:59;;;;;;;2.43;1.60;;;23.50;65.30;;;;;;6172103;23;20952;-73
2023/08/13 01:26:31;;;;;;;2.50;1.63;;;23.50;65.40;;;;;;6173820;23;21005;-72
2023/08/13 01:29:05;;;;;;;2.60;1.70;;;23.50;65.40;;;;;;6170545;23;20434;-72
2023/08/13 01:31:37;;;;;;;1.50;1.30;;;23.50;66.70;;;;;;6172087;23;20389;-73
2023/08/13 01:34:06;;;;;;;4.70;1.43;;;23.50;65.20;;;;;;6171354;23;20400;-72
2023/08/13 01:36:35;;;;;;;2.70;1.67;;;23.50;65.30;;;;;;6172955;23;20461;-73
2023/08/13 01:39:06;;;;;;;4.27;1.40;;;23.50;65.30;;;;;;6172167;23;20433;-72
2023/08/13 01:41:36;;;;;;;2.47;1.73;;;23.50;65.30;;;;;;6172974;23;20388;-73
2023/08/13 01:44:05;;;;;;;2.40;2.10;;;23.50;65.20;;;;;;6173463;23;20398;-72
2023/08/13 01:46:33;;;;;;;2.67;1.70;;;23.50;65.30;;;;;;6174755;23;20498;-72
2023/08/13 01:49:02;;;;;;;2.20;1.50;;;23.50;65.30;;;;;;6172045;23;20419;-73
2023/08/13 01:51:30;;;;;;;2.00;1.30;;;23.50;65.20;;;;;;6173009;23;20391;-73
2023/08/13 01:53:59;;;;;;;2.00;1.70;;;23.50;65.40;;;;;;6171877;23;20812;-73
2023/08/13 01:56:29;;;;;;;3.03;1.60;;;23.50;65.20;;;;;;6172718;23;20413;-74
2023/08/13 01:58:57;;;;;;;3.03;1.57;;;23.50;65.20;;;;;;6171648;23;20712;-73
2023/08/13 02:01:26;;;;;;;2.37;1.90;;;23.50;65.20;;;;;;6173515;23;20830;-72
2023/08/13 02:03:54;;;;;;;1.93;1.57;;;23.50;65.20;;;;;;6172758;23;20983;-73
2023/08/13 02:06:22;;;;;;;2.23;1.53;;;23.50;65.30;;;;;;6175365;23;20909;-72
2023/08/13 02:08:51;;;;;;;2.00;1.50;;;23.50;65.30;;;;;;6175373;23;20407;-73
2023/08/13 02:11:19;;;;;;;1.73;1.33;;;23.50;65.30;;;;;;6175265;23;20470;-74
2023/08/13 02:13:49;;;;;;;1.77;1.27;;;23.50;65.40;;;;;;6174998;23;20393;-73
2023/08/13 02:16:18;;;;;;;2.10;1.37;;;23.40;65.30;;;;;;6175093;23;20415;-73
2023/08/13 02:18:46;;;;;;;2.83;1.77;;;23.50;65.20;;;;;;6175408;23;20438;-72
2023/08/13 02:21:19;;;;;;;2.37;1.50;;;23.40;65.20;;;;;;6175719;23;20974;-73
2023/08/13 02:23:47;;;;;;;2.13;1.70;;;23.40;65.10;;;;;;6174320;23;20474;-73
2023/08/13 02:26:16;;;;;;;2.00;1.67;;;23.50;65.20;;;;;;6176661;23;20413;-72
2023/08/13 02:28:45;;;;;;;1.80;1.47;;;23.40;65.10;;;;;;6174545;23;20424;-72
2023/08/13 02:31:15;;;;;;;2.83;1.60;;;23.40;65.10;;;;;;6175214;23;20435;-72
2023/08/13 02:33:44;;;;;;;1.93;1.07;;;23.40;65.20;;;;;;6174432;23;20642;-72
2023/08/13 02:36:12;;;;;;;1.73;1.63;;;23.40;65.20;;;;;;6175238;23;20516;-72
2023/08/13 02:38:40;;;;;;;2.70;2.00;;;23.40;65.20;;;;;;6174762;23;20388;-72
2023/08/13 02:41:09;;;;;;;1.47;1.37;;;23.40;65.30;;;;;;6176770;23;20396;-72
2023/08/13 02:43:51;;;;;;;2.50;1.43;;;23.40;65.40;;;;;;6175561;23;20391;-72
2023/08/13 02:46:22;;;;;;;2.30;1.60;;;23.40;65.20;;;;;;6176618;23;20412;-72
2023/08/13 02:48:53;;;;;;;1.90;1.40;;;23.40;65.20;;;;;;6173926;23;20777;-73
2023/08/13 02:51:23;;;;;;;2.53;1.57;;;23.40;65.00;;;;;;6175037;23;20460;-73
2023/08/13 02:53:51;;;;;;;3.13;1.73;;;23.40;65.10;;;;;;6173813;23;20933;-72
2023/08/13 02:56:20;;;;;;;2.13;1.53;;;23.30;65.10;;;;;;6176019;23;20454;-72
2023/08/13 02:58:49;;;;;;;2.40;1.37;;;23.40;65.10;;;;;;6174928;23;20882;-72
2023/08/13 03:01:17;;;;;;;3.80;1.90;;;23.40;65.00;;;;;;6175248;23;20393;-71
2023/08/13 03:03:48;;;;;;;1.90;1.37;;;23.30;64.90;;;;;;6171315;23;20432;-72
2023/08/13 03:06:21;;;;;;;2.03;1.40;;;23.30;64.80;;;;;;6173248;23;20569;-73
2023/08/13 03:08:50;;;;;;;2.37;1.50;;;23.30;64.90;;;;;;6172325;23;20605;-73
2023/08/13 03:11:18;;;;;;;2.20;1.40;;;23.30;64.90;;;;;;6173419;23;20375;-73
2023/08/13 03:13:47;;;;;;;3.10;1.50;;;23.30;64.90;;;;;;6171798;23;20415;-73
2023/08/13 03:16:17;;;;;;;2.73;1.50;;;23.30;64.80;;;;;;6172421;23;20416;-72
2023/08/13 03:18:48;;;;;;;2.33;1.40;;;23.30;65.00;;;;;;6171898;23;20433;-71
2023/08/13 03:21:19;;;;;;;2.60;1.67;;;23.30;64.90;;;;;;6172220;23;20400;-72
2023/08/13 03:23:48;;;;;;;1.97;1.47;;;23.30;64.90;;;;;;6171889;23;20714;-71
2023/08/13 03:26:17;;;;;;;1.90;1.30;;;23.30;64.90;;;;;;6171789;23;20746;-72
2023/08/13 03:28:46;;;;;;;2.50;1.77;;;23.30;65.00;;;;;;6170859;23;20525;-72
2023/08/13 03:31:18;;;;;;;2.10;1.37;;;23.30;64.90;;;;;;6172049;23;20424;-73
2023/08/13 03:34:01;;;;;;;2.90;1.60;;;23.30;64.90;;;;;;6169855;23;20447;-73
2023/08/13 03:36:30;;;;;;;2.50;1.40;;;23.30;64.90;;;;;;6172038;23;20409;-73
2023/08/13 03:38:58;;;;;;;2.50;1.40;;;23.30;64.90;;;;;;6170893;23;20433;-73
2023/08/13 03:41:27;;;;;;;2.53;1.70;;;23.30;64.80;;;;;;6171836;23;20716;-73
2023/08/13 03:43:55;;;;;;;1.87;1.40;;;23.30;65.40;;;;;;6171579;23;20867;-73
2023/08/13 03:46:24;;;;;;;2.33;1.87;;;23.20;64.70;;;;;;6172392;23;20419;-73
2023/08/13 03:48:53;;;;;;;4.83;1.77;;;23.20;64.70;;;;;;6171105;23;20464;-73
2023/08/13 03:51:26;;;;;;;2.57;1.40;;;23.30;64.80;;;;;;6172299;23;20377;-72
2023/08/13 03:53:58;;;;;;;3.00;1.60;;;23.20;64.70;;;;;;6172376;23;20389;-72
2023/08/13 03:56:32;;;;;;;1.60;1.10;;;23.20;64.70;;;;;;6172106;23;20426;-72
2023/08/13 03:59:00;;;;;;;1.93;1.30;;;23.20;64.70;;;;;;6170161;23;20436;-72
2023/08/13 04:01:30;;;;;;;2.70;1.50;;;23.20;64.70;;;;;;6172200;23;20388;-72
2023/08/13 04:03:58;;;;;;;2.00;1.80;;;23.20;64.70;;;;;;6171097;23;20530;-72
2023/08/13 04:06:28;;;;;;;1.73;1.47;;;23.20;64.70;;;;;;6172008;23;20452;-72
2023/08/13 04:08:56;;;;;;;1.80;1.43;;;23.20;64.60;;;;;;6171625;23;20428;-72
2023/08/13 04:11:26;;;;;;;1.70;1.57;;;23.20;64.70;;;;;;6171742;23;20519;-72
2023/08/13 04:13:54;;;;;;;2.43;1.60;;;23.20;64.60;;;;;;6171176;23;20436;-72
2023/08/13 04:16:23;;;;;;;2.13;1.70;;;23.20;64.70;;;;;;6171633;23;20503;-72
2023/08/13 04:18:52;;;;;;;2.60;1.23;;;23.20;64.60;;;;;;6170449;23;20471;-73
2023/08/13 04:21:25;;;;;;;1.70;1.60;;;23.20;64.60;;;;;;6171244;23;20409;-72
2023/08/13 04:23:57;;;;;;;2.47;1.40;;;23.20;64.50;;;;;;6171045;23;20388;-72
2023/08/13 04:26:26;;;;;;;2.20;1.90;;;23.20;64.60;;;;;;6171352;23;20752;-72
2023/08/13 04:28:57;;;;;;;2.67;2.00;;;23.20;64.70;;;;;;6170148;23;20416;-73
2023/08/13 04:31:26;;;;;;;1.90;1.70;;;23.10;64.30;;;;;;6171413;23;20800;-73
2023/08/13 04:33:55;;;;;;;3.50;1.97;;;23.10;64.40;;;;;;6169856;23;20452;-72
2023/08/13 04:36:23;;;;;;;1.67;1.47;;;23.20;64.60;;;;;;6171533;23;20428;-73
2023/08/13 04:38:51;;;;;;;2.20;1.70;;;23.10;64.40;;;;;;6172817;23;20747;-73
2023/08/13 04:41:25;;;;;;;1.97;1.40;;;23.10;64.40;;;;;;6171309;23;20405;-73
2023/08/13 04:43:53;;;;;;;2.27;1.53;;;23.10;64.50;;;;;;6170562;23;20403;-68
2023/08/13 04:46:23;;;;;;;1.90;1.50;;;23.10;64.50;;;;;;6174675;23;20938;-68
2023/08/13 04:48:58;;;;;;;2.73;1.90;;;23.10;64.30;;;;;;6171692;23;20416;-68
2023/08/13 04:51:28;;;;;;;2.13;1.90;;;23.10;64.30;;;;;;6171414;23;20735;-68
2023/08/13 04:53:57;;;;;;;3.00;1.30;;;23.10;64.10;;;;;;6171322;23;20385;-68
2023/08/13 04:56:30;;;;;;;2.50;1.50;;;23.10;64.30;;;;;;6172899;23;20473;-68
2023/08/13 04:59:00;;;;;;;1.90;1.60;;;23.10;64.30;;;;;;6172721;23;20376;-68
2023/08/13 05:01:29;;;;;;;3.20;1.40;;;23.00;64.10;;;;;;6171936;23;20397;-68
2023/08/13 05:03:58;;;;;;;2.80;1.40;;;23.00;64.10;;;;;;6171082;23;20407;-68
2023/08/13 05:06:29;;;;;;;2.27;1.63;;;23.00;64.00;;;;;;6171970;23;20412;-68
2023/08/13 05:09:00;;;;;;;2.40;1.53;;;23.00;64.20;;;;;;6171423;23;20479;-68
2023/08/13 05:11:29;;;;;;;1.87;1.13;;;23.10;64.30;;;;;;6172659;23;20734;-68
2023/08/13 05:13:58;;;;;;;1.90;1.60;;;23.00;64.20;;;;;;6170572;23;20393;-68
2023/08/13 05:16:26;;;;;;;2.57;1.70;;;23.00;64.20;;;;;;6172053;23;20419;-68
2023/08/13 05:18:56;;;;;;;2.00;1.50;;;23.00;64.20;;;;;;6170115;23;20415;-69
2023/08/13 05:21:25;;;;;;;1.90;1.30;;;23.00;64.20;;;;;;6171688;23;20419;-68
2023/08/13 05:23:54;;;;;;;3.07;1.60;;;23.00;64.20;;;;;;6171741;23;20397;-68
2023/08/13 05:26:22;;;;;;;2.97;1.43;;;23.00;64.20;;;;;;6172179;23;20405;-68
2023/08/13 05:28:52;;;;;;;2.20;1.13;;;23.00;64.30;;;;;;6170436;23;20440;-68
2023/08/13 05:31:21;;;;;;;2.67;1.80;;;23.00;64.20;;;;;;6171449;23;20384;-68
2023/08/13 05:33:49;;;;;;;2.20;1.60;;;23.00;64.30;;;;;;6170781;23;20953;-68
2023/08/13 05:36:18;;;;;;;2.13;1.10;;;23.00;64.30;;;;;;6171730;23;20420;-68
2023/08/13 05:38:46;;;;;;;2.47;1.33;;;23.00;64.30;;;;;;6171920;23;20404;-68
2023/08/13 05:41:15;;;;;;;1.83;1.50;;;23.00;64.20;;;;;;6172116;23;21285;-68
2023/08/13 05:43:43;;;;;;;1.40;1.20;;;23.00;64.30;;;;;;6170669;23;20432;-68
2023/08/13 05:46:13;;;;;;;2.53;1.50;;;23.00;64.30;;;;;;6172822;23;20415;-67
2023/08/13 05:48:42;;;;;;;2.43;1.70;;;23.00;64.30;;;;;;6172747;23;20497;-69
2023/08/13 05:51:10;;;;;;;1.60;1.27;;;23.00;64.40;;;;;;6171964;23;20380;-69
2023/08/13 05:53:39;;;;;;;2.40;1.30;;;23.00;64.30;;;;;;6171978;23;20389;-68
2023/08/13 05:56:07;;;;;;;3.00;1.47;;;23.00;64.30;;;;;;6172285;23;20478;-67
2023/08/13 05:58:35;;;;;;;1.67;1.53;;;23.00;64.30;;;;;;6170170;23;20768;-68
2023/08/13 06:01:04;;;;;;;2.07;1.73;;;23.00;64.50;;;;;;6171980;23;20462;-68
2023/08/13 06:03:34;;;;;;;1.90;1.43;;;23.00;64.30;;;;;;6170523;23;20870;-68
2023/08/13 06:06:03;;;;;;;1.43;1.20;;;23.00;64.40;;;;;;6171692;23;20461;-68
2023/08/13 06:08:31;;;;;;;2.03;1.43;;;22.90;64.40;;;;;;6170360;23;20432;-68
2023/08/13 06:10:59;;;;;;;2.53;1.60;;;23.00;64.50;;;;;;6171481;23;20431;-68
2023/08/13 06:13:28;;;;;;;2.80;1.53;;;22.90;64.40;;;;;;6169568;23;20444;-68
2023/08/13 06:15:56;;;;;;;1.87;1.60;;;22.90;64.40;;;;;;6171612;23;20910;-68
2023/08/13 06:18:26;;;;;;;2.00;1.33;;;22.90;64.40;;;;;;6170597;23;20440;-69
2023/08/13 06:20:56;;;;;;;3.10;1.63;;;22.90;64.50;;;;;;6172784;23;20415;-68
2023/08/13 06:23:25;;;;;;;2.83;1.90;;;22.90;64.50;;;;;;6170830;23;20423;-68
2023/08/13 06:25:53;;;;;;;3.47;2.00;;;22.90;64.40;;;;;;6171431;23;20989;-66
2023/08/13 06:28:22;;;;;;;2.80;1.73;;;22.90;64.30;;;;;;6170607;23;20557;-68
2023/08/13 06:30:50;;;;;;;3.13;1.70;;;22.90;64.30;;;;;;6171484;23;20424;-68
2023/08/13 06:33:19;;;;;;;3.37;1.90;;;22.90;64.30;;;;;;6170673;23;20484;-68
2023/08/13 06:35:48;;;;;;;5.77;1.80;;;22.90;64.30;;;;;;6170353;23;20933;-68
2023/08/13 06:38:18;;;;;;;1.67;1.50;;;22.90;64.40;;;;;;6169835;23;20443;-68
2023/08/13 06:40:46;;;;;;;2.27;1.77;;;22.90;64.30;;;;;;6171352;23;20748;-68
2023/08/13 06:43:15;;;;;;;3.33;1.80;;;22.90;64.40;;;;;;6144818;23;20400;-69
2023/08/13 06:45:44;;;;;;;2.00;1.70;;;22.90;64.20;;;;;;6170947;23;20421;-68
2023/08/13 06:48:12;;;;;;;2.87;2.03;;;22.90;64.30;;;;;;6171001;23;20389;-68
2023/08/13 06:50:40;;;;;;;3.47;2.33;;;22.90;64.30;;;;;;6171002;23;20424;-69
2023/08/13 06:53:09;;;;;;;2.10;1.73;;;22.90;64.00;;;;;;6174086;23;20404;-68
2023/08/13 06:55:38;;;;;;;3.33;1.50;;;22.90;64.10;;;;;;6174541;23;20647;-68
2023/08/13 06:58:07;;;;;;;2.50;1.50;;;22.90;64.30;;;;;;6169579;23;20488;-68
2023/08/13 07:00:37;;;;;;;2.60;1.40;;;22.90;64.00;;;;;;6171922;23;20520;-68
2023/08/13 07:03:08;;;;;;;2.67;1.70;;;22.90;64.20;;;;;;6171525;23;20853;-68
2023/08/13 07:05:37;;;;;;;1.80;1.30;;;22.90;64.10;;;;;;6172953;23;20420;-68
2023/08/13 07:08:06;;;;;;;2.30;1.37;;;22.90;64.00;;;;;;6172729;23;20755;-69
2023/08/13 07:10:34;;;;;;;2.20;1.53;;;22.80;64.20;;;;;;6171314;23;20425;-68
2023/08/13 07:13:04;;;;;;;2.93;1.70;;;22.90;64.30;;;;;;6171026;23;20396;-68
2023/08/13 07:15:33;;;;;;;4.37;2.00;;;22.90;64.40;;;;;;6170783;23;20906;-68
2023/08/13 07:18:01;;;;;;;2.63;1.50;;;22.90;64.10;;;;;;6171389;23;20388;-68
2023/08/13 07:20:30;;;;;;;2.50;1.50;;;22.80;64.20;;;;;;6168886;23;20474;-68
2023/08/13 07:23:00;;;;;;;2.90;1.30;;;22.90;64.20;;;;;;6170744;23;21047;-68
2023/08/13 07:25:28;;;;;;;7.00;2.63;;;22.80;64.10;;;;;;6168767;23;20413;-68
2023/08/13 07:27:57;;;;;;;7.20;2.87;;;22.80;64.10;;;;;;6169577;23;20705;-68
2023/08/13 07:30:26;;;;;;;5.03;2.37;;;22.80;64.00;;;;;;6169353;23;20444;-68
2023/08/13 07:32:55;;;;;;;6.23;1.97;;;22.70;64.10;;;;;;6169109;23;20475;-69
2023/08/13 07:35:24;;;;;;;3.73;1.53;;;22.70;64.20;;;;;;6168735;23;20786;-68
2023/08/13 07:37:53;;;;;;;3.90;2.00;;;22.80;65.50;;;;;;6170307;23;20751;-68
2023/08/13 07:40:21;;;;;;;2.30;2.10;;;22.70;64.20;;;;;;6171088;23;20432;-68
2023/08/13 07:42:50;;;;;;;4.67;1.97;;;22.80;64.20;;;;;;6145914;23;20381;-68
2023/08/13 07:45:18;;;;;;;2.50;1.80;;;22.80;64.20;;;;;;6170005;23;20790;-68
2023/08/13 07:47:48;;;;;;;2.43;1.70;;;22.80;64.20;;;;;;6171845;23;20428;-68
2023/08/13 07:50:16;;;;;;;2.77;2.30;;;22.80;63.70;;;;;;6169100;23;20445;-68
2023/08/13 07:52:45;;;;;;;3.83;2.30;;;22.80;63.90;;;;;;6170744;23;20392;-68
2023/08/13 07:55:13;;;;;;;4.70;2.30;;;22.80;63.70;;;;;;6170330;23;20918;-68
2023/08/13 07:57:42;;;;;;;3.63;1.90;;;22.80;63.80;;;;;;6171010;23;20416;-68
2023/08/13 08:00:11;;;;;;;3.03;1.80;;;22.80;64.00;;;;;;6169005;23;20939;-68
2023/08/13 08:02:43;;;;;;;2.80;1.73;;;22.80;64.10;;;;;;6171779;23;20488;-67
2023/08/13 08:05:13;;;;;;;6.37;1.60;;;22.80;64.00;;;;;;6170738;23;20441;-68
2023/08/13 08:07:41;;;;;;;1.90;1.30;;;22.80;64.10;;;;;;6171171;23;20904;-68
2023/08/13 08:10:10;;;;;;;2.70;2.17;;;22.80;64.10;;;;;;6170118;23;20961;-68
2023/08/13 08:12:38;;;;;;;2.93;1.90;;;22.80;64.10;;;;;;6170213;23;20391;-68
2023/08/13 08:15:08;;;;;;;2.47;1.50;;;22.80;64.10;;;;;;6171038;23;20522;-68
2023/08/13 08:17:37;;;;;;;2.10;1.77;;;22.80;64.20;;;;;;6169320;23;20397;-68
2023/08/13 08:20:08;;;;;;;4.97;1.60;;;22.80;64.10;;;;;;6166180;23;20515;-68
2023/08/13 08:22:38;;;;;;;2.17;1.20;;;22.80;64.00;;;;;;6170391;23;20761;-68
2023/08/13 08:25:10;;;;;;;2.53;1.33;;;22.80;64.20;;;;;;6169607;23;20437;-69
2023/08/13 08:27:39;;;;;;;2.43;1.50;;;22.80;64.10;;;;;;6172476;23;20691;-68
2023/08/13 08:30:08;;;;;;;2.70;1.50;;;22.80;64.20;;;;;;6169699;23;20452;-69
2023/08/13 08:32:37;;;;;;;2.90;1.60;;;22.80;64.20;;;;;;6168931;23;20465;-68
2023/08/13 08:35:07;;;;;;;1.90;1.37;;;22.80;64.10;;;;;;6167826;23;20507;-68
2023/08/13 08:37:36;;;;;;;2.50;1.60;;;22.80;64.10;;;;;;6168456;23;20401;-68
2023/08/13 08:40:06;;;;;;;1.73;1.57;;;22.80;64.10;;;;;;6172353;23;20448;-68
2023/08/13 08:42:36;;;;;;;2.93;1.50;;;22.80;64.00;;;;;;6170616;23;20393;-68
2023/08/13 08:45:06;;;;;;;2.53;1.30;;;22.80;64.10;;;;;;6170258;23;20432;-68
2023/08/13 08:47:36;;;;;;;1.90;1.37;;;22.80;64.00;;;;;;6168947;23;20407;-68
2023/08/13 08:50:05;;;;;;;1.73;1.40;;;22.80;64.10;;;;;;6169899;22;20451;-68
2023/08/13 08:52:34;;;;;;;2.23;1.17;;;22.80;64.10;;;;;;6169788;23;20476;-68
2023/08/13 08:55:05;;;;;;;3.50;1.77;;;22.80;64.10;;;;;;6172210;22;20469;-68
2023/08/13 08:57:33;;;;;;;5.00;2.00;;;22.80;64.00;;;;;;6169474;23;20875;-68
2023/08/13 09:00:02;;;;;;;1.90;1.37;;;22.80;64.10;;;;;;6169663;23;20436;-68
2023/08/13 09:02:31;;;;;;;4.73;1.43;;;22.80;64.10;;;;;;6170105;23;20389;-68
2023/08/13 09:04:59;;;;;;;3.93;2.10;;;22.80;64.10;;;;;;6170813;23;20443;-68
2023/08/13 09:07:31;;;;;;;1.87;1.37;;;22.80;64.20;;;;;;6170378;23;20404;-68
2023/08/13 09:10:00;;;;;;;2.40;1.40;;;22.80;64.20;;;;;;6144943;23;20782;-67
2023/08/13 09:12:34;;;;;;;2.40;1.53;;;22.80;64.20;;;;;;6169145;23;20493;-68
2023/08/13 09:15:07;;;;;;;1.90;1.40;;;22.80;64.20;;;;;;6170848;23;20432;-67
2023/08/13 09:17:35;;;;;;;1.80;1.20;;;22.80;64.20;;;;;;6170327;23;20377;-68
2023/08/13 09:20:16;;;;;;;1.90;1.43;;;22.70;64.20;;;;;;6168791;23;20523;-68
2023/08/13 09:22:45;;;;;;;2.70;1.40;;;22.80;64.30;;;;;;6168385;23;20436;-68
2023/08/13 09:25:15;;;;;;;2.17;1.10;;;22.80;64.30;;;;;;6167481;23;20498;-68
2023/08/13 09:27:46;;;;;;;1.63;1.23;;;22.80;64.30;;;;;;6171750;23;20726;-68
2023/08/13 09:30:27;;;;;;;1.70;1.40;;;22.70;63.90;;;;;;6168496;23;20460;-68
2023/08/13 09:32:58;;;;;;;3.13;1.27;;;22.70;64.10;;;;;;6170643;23;20377;-67
2023/08/13 09:35:27;;;;;;;2.00;1.80;;;22.80;64.20;;;;;;6166984;23;20989;-68
2023/08/13 09:37:55;;;;;;;2.73;1.60;;;22.70;64.20;;;;;;6169626;23;20420;-67
2023/08/13 09:40:24;;;;;;;2.60;1.60;;;22.80;64.30;;;;;;6145985;23;20436;-67
2023/08/13 09:42:57;;;;;;;3.50;1.53;;;22.80;64.40;;;;;;6168717;23;20420;-67
2023/08/13 09:45:28;;;;;;;2.30;1.60;;;22.80;64.30;;;;;;6171174;23;20433;-69
2023/08/13 09:47:59;;;;;;;3.67;2.20;;;22.80;64.30;;;;;;6175281;23;20385;-69
2023/08/13 09:50:29;;;;;;;5.60;2.17;;;22.90;62.70;;;;;;6170126;23;20917;-67
2023/08/13 09:52:59;;;;;;;5.10;1.90;;;22.90;63.50;;;;;;6171132;23;20384;-67
2023/08/13 09:55:32;;;;;;;2.03;1.40;;;22.90;63.60;;;;;;6172500;23;21028;-67
2023/08/13 09:58:05;;;;;;;2.80;1.40;;;22.90;63.70;;;;;;6172666;23;20842;-67
2023/08/13 10:00:34;;;;;;;4.77;1.67;;;22.80;63.70;;;;;;6171259;23;20462;-67
2023/08/13 10:03:02;;;;;;;4.97;1.67;;;22.80;63.90;;;;;;6171764;23;20415;-67
2023/08/13 10:05:31;;;;;;;6.87;1.70;;;22.80;64.10;;;;;;6170298;23;20907;-67
2023/08/13 10:08:00;;;;;;;2.57;1.90;;;22.80;64.20;;;;;;6172702;23;20760;-67
2023/08/13 10:10:31;;;;;;;5.53;1.83;;;22.70;64.20;;;;;;6172694;22;20436;-67
2023/08/13 10:12:59;;;;;;;4.43;2.60;;;22.80;64.20;;;;;;6170894;23;20421;-67
2023/08/13 10:15:30;;;;;;;4.20;2.30;;;22.70;64.10;;;;;;6171010;23;20412;-68
2023/08/13 10:17:59;;;;;;;2.93;1.80;;;22.70;64.30;;;;;;6171928;23;20851;-67
2023/08/13 10:20:28;;;;;;;2.17;1.50;;;22.80;64.30;;;;;;6170323;23;20417;-67
2023/08/13 10:22:56;;;;;;;2.60;1.77;;;22.80;64.40;;;;;;6171186;23;20392;-67
2023/08/13 10:25:29;;;;;;;4.00;1.80;;;22.80;64.60;;;;;;6172108;22;21011;-67
2023/08/13 10:27:58;;;;;;;3.97;1.67;;;22.70;64.40;;;;;;6146911;23;20432;-67
2023/08/13 10:30:26;;;;;;;2.90;1.60;;;22.70;64.40;;;;;;6170187;23;20485;-67
2023/08/13 10:32:59;;;;;;;2.90;1.77;;;22.70;64.40;;;;;;6170603;23;20436;-67
2023/08/13 10:35:34;;;;;;;3.03;1.57;;;22.70;64.40;;;;;;6169481;23;20430;-68
2023/08/13 10:38:04;;;;;;;3.03;2.00;;;22.70;64.60;;;;;;6171025;23;20437;-67
2023/08/13 10:40:32;;;;;;;3.53;1.90;;;22.70;64.60;;;;;;6171639;23;20849;-67
2023/08/13 10:43:01;;;;;;;4.83;1.70;;;22.70;65.90;;;;;;6170702;23;20385;-67
2023/08/13 10:45:32;;;;;;;3.40;2.10;;;22.70;64.70;;;;;;6172292;23;20829;-67
2023/08/13 10:48:03;;;;;;;3.57;1.87;;;22.70;64.70;;;;;;6147181;23;20752;-67
2023/08/13 10:50:33;;;;;;;2.80;1.70;;;22.70;64.70;;;;;;6169955;23;20474;-67
2023/08/13 10:53:09;;;;;;;3.70;1.73;;;22.70;64.70;;;;;;6171087;23;20421;-67
2023/08/13 10:55:40;;;;;;;2.80;1.30;;;22.70;64.70;;;;;;6172605;23;20465;-67
2023/08/13 10:58:21;;;;;;;2.63;1.90;;;22.70;64.70;;;;;;6172178;23;20442;-67
2023/08/13 11:00:50;;;;;;;3.87;1.97;;;22.70;64.70;;;;;;6171603;23;20389;-67
2023/08/13 11:03:22;;;;;;;2.30;1.63;;;22.70;64.60;;;;;;6171205;23;20704;-72
2023/08/13 11:05:52;;;;;;;2.60;1.70;;;22.70;64.70;;;;;;6172011;23;20490;-72
2023/08/13 11:08:21;;;;;;;1.97;1.53;;;22.70;64.70;;;;;;6171666;23;20432;-71
2023/08/13 11:11:09;;;;;;;1.90;1.40;;;22.70;64.50;;;;;;6174520;23;20694;-71
2023/08/13 11:13:37;;;;;;;2.23;1.53;;;22.70;64.50;;;;;;6171742;23;20761;-71
2023/08/13 11:16:06;;;;;;;3.10;1.83;;;22.70;64.20;;;;;;6171794;23;20461;-72
2023/08/13 11:18:36;;;;;;;1.93;1.60;;;22.70;64.30;;;;;;6171501;23;20447;-71
2023/08/13 11:21:05;;;;;;;2.63;1.30;;;22.70;64.40;;;;;;6172568;23;20408;-72
2023/08/13 11:23:34;;;;;;;2.87;1.50;;;22.70;64.50;;;;;;6171396;23;20951;-71
2023/08/13 11:26:05;;;;;;;2.93;1.40;;;22.70;64.20;;;;;;6172892;23;20432;-72
2023/08/13 11:28:34;;;;;;;2.30;1.67;;;22.70;64.50;;;;;;6171201;23;21021;-72
2023/08/13 11:31:02;;;;;;;2.03;1.53;;;22.70;64.10;;;;;;6172936;23;20401;-72
2023/08/13 11:33:31;;;;;;;2.37;1.43;;;22.70;64.20;;;;;;6170685;23;20914;-72
2023/08/13 11:36:01;;;;;;;4.60;1.53;;;22.70;64.10;;;;;;6172234;23;20413;-72
2023/08/13 11:38:30;;;;;;;3.63;1.83;;;22.70;63.90;;;;;;6172104;23;20425;-72
2023/08/13 11:40:58;;;;;;;2.10;1.37;;;22.70;63.90;;;;;;6172048;23;20392;-72
2023/08/13 11:43:29;;;;;;;2.17;1.80;;;22.70;64.00;;;;;;6170252;23;20388;-72
2023/08/13 11:45:57;;;;;;;1.83;1.37;;;22.70;63.60;;;;;;6171055;23;20471;-72
2023/08/13 11:48:27;;;;;;;2.23;1.47;;;22.70;63.80;;;;;;6172034;23;20464;-71
2023/08/13 11:51:10;;;;;;;2.27;1.50;;;22.70;63.90;;;;;;6172220;23;20405;-72
2023/08/13 11:53:50;;;;;;;2.53;2.00;;;22.70;63.90;;;;;;6172447;23;20470;-72
2023/08/13 11:56:20;;;;;;;2.33;1.33;;;22.70;64.10;;;;;;6172296;23;20424;-72
2023/08/13 11:58:50;;;;;;;4.00;1.60;;;22.70;64.20;;;;;;6169056;23;20933;-72
2023/08/13 12:01:19;;;;;;;2.90;1.70;;;22.80;65.00;;;;;;6171883;23;20855;-72
2023/08/13 12:03:47;;;;;;;4.97;1.83;;;22.70;64.10;;;;;;6171400;23;20408;-72
2023/08/13 12:06:15;;;;;;;3.13;1.90;;;22.80;64.20;;;;;;6173857;23;20411;-72
2023/08/13 12:08:46;;;;;;;3.67;2.17;;;22.80;64.20;;;;;;6170534;23;20449;-72
2023/08/13 12:11:16;;;;;;;3.70;1.70;;;22.80;64.20;;;;;;6173483;23;20375;-72
2023/08/13 12:13:46;;;;;;;3.50;1.80;;;22.80;64.20;;;;;;6169330;23;20429;-72
2023/08/13 12:16:15;;;;;;;2.33;1.80;;;22.70;64.10;;;;;;6171703;23;20949;-71
2023/08/13 12:18:43;;;;;;;3.40;2.03;;;22.80;63.70;;;;;;6171013;23;20438;-71
2023/08/13 12:21:12;;;;;;;3.60;2.30;;;23.20;57.70;;;;;;6171076;23;20941;-72
2023/08/13 12:23:40;;;;;;;2.23;1.67;;;23.20;58.10;;;;;;6168646;23;20446;-72
2023/08/13 12:26:09;;;;;;;3.83;1.67;;;23.10;58.20;;;;;;6170883;23;20531;-72
2023/08/13 12:28:38;;;;;;;3.97;1.97;;;23.00;58.90;;;;;;6171501;23;20405;-72
2023/08/13 12:31:07;;;;;;;5.50;1.97;;;23.00;59.60;;;;;;6171326;23;20381;-72
2023/08/13 12:33:35;;;;;;;3.10;2.10;;;22.90;59.90;;;;;;6170359;23;20482;-72
2023/08/13 12:36:04;;;;;;;4.10;1.77;;;22.90;60.20;;;;;;6170814;23;20906;-72
2023/08/13 12:38:33;;;;;;;2.60;1.83;;;22.90;60.50;;;;;;6170872;23;20437;-72
2023/08/13 12:41:05;;;;;;;2.40;1.70;;;22.90;60.70;;;;;;6171871;23;20780;-72
2023/08/13 12:43:33;;;;;;;2.67;1.80;;;22.80;60.90;;;;;;6170638;23;20393;-72
2023/08/13 12:46:05;;;;;;;2.20;1.83;;;22.80;61.20;;;;;;6171511;23;20420;-72
2023/08/13 12:48:35;;;;;;;2.60;1.80;;;22.80;61.50;;;;;;6173206;23;20385;-72
2023/08/13 12:51:04;;;;;;;1.93;1.50;;;22.80;61.50;;;;;;6170377;23;20929;-72
2023/08/13 12:53:34;;;;;;;2.83;1.90;;;22.80;61.50;;;;;;6170270;23;20511;-72
2023/08/13 12:56:05;;;;;;;3.00;1.97;;;22.80;61.60;;;;;;6172435;23;20770;-72
2023/08/13 12:58:34;;;;;;;2.90;1.40;;;22.80;61.50;;;;;;6170795;23;20392;-72
2023/08/13 13:01:03;;;;;;;3.73;1.77;;;22.80;61.70;;;;;;6170982;23;20397;-72